sensor_id;sensor_type;location;lat;lon;timestamp;P1;durP1;ratioP1;P2;durP2;ratioP2
17253;SDS011;32542;52.832;13.816;2023-09-19T00:00:24;3.25;;;1.58;;
17253;SDS011;32542;52.832;13.816;2023-09-19T00:03:29;2.88;;;1.40;;
17253;SDS011;32542;52.832;13.816;2023-09-19T00:06:32;4.45;;;1.80;;
17253;SDS011;32542;52.832;13.816;2023-09-19T00:09:35;2.47;;;1.40;;
17253;SDS011;32542;52.832;13.816;2023-09-19T00:12:43;5.28;;;1.70;;
17253;SDS011;32542;52.832;13.816;2023-09-19T00:15:46;3.03;;;1.38;;
17253;SDS011;32542;52.832;13.816;2023-09-19T00:18:51;3.88;;;1.63;;
17253;SDS011;32542;52.832;13.816;2023-09-19T00:21:54;3.20;;;1.40;;
17253;SDS011;32542;52.832;13.816;2023-09-19T00:24:57;5.10;;;1.38;;
17253;SDS011;32542;52.832;13.816;2023-09-19T00:28:01;3.95;;;1.40;;
17253;SDS011;32542;52.832;13.816;2023-09-19T00:31:07;4.82;;;1.80;;
17253;SDS011;32542;52.832;13.816;2023-09-19T00:34:10;2.53;;;1.48;;
17253;SDS011;32542;52.832;13.816;2023-09-19T00:37:13;1.75;;;1.23;;
17253;SDS011;32542;52.832;13.816;2023-09-19T00:40:19;4.78;;;1.52;;
17253;SDS011;32542;52.832;13.816;2023-09-19T00:43:24;2.95;;;1.40;;
17253;SDS011;32542;52.832;13.816;2023-09-19T00:46:29;3.38;;;1.52;;
17253;SDS011;32542;52.832;13.816;2023-09-19T00:49:34;3.42;;;1.55;;
17253;SDS011;32542;52.832;13.816;2023-09-19T00:52:37;4.78;;;1.58;;
17253;SDS011;32542;52.832;13.816;2023-09-19T00:55:41;2.78;;;1.30;;
17253;SDS011;32542;52.832;13.816;2023-09-19T00:58:47;3.58;;;1.48;;
17253;SDS011;32542;52.832;13.816;2023-09-19T01:01:50;4.63;;;1.20;;
17253;SDS011;32542;52.832;13.816;2023-09-19T01:04:55;4.50;;;1.48;;
17253;SDS011;32542;52.832;13.816;2023-09-19T01:07:58;2.13;;;1.30;;
17253;SDS011;32542;52.832;13.816;2023-09-19T01:11:04;4.03;;;1.40;;
17253;SDS011;32542;52.832;13.816;2023-09-19T01:14:19;7.75;;;1.50;;
17253;SDS011;32542;52.832;13.816;2023-09-19T01:17:30;3.97;;;1.40;;
17253;SDS011;32542;52.832;13.816;2023-09-19T01:20:39;2.80;;;1.38;;
17253;SDS011;32542;52.832;13.816;2023-09-19T01:23:55;1.80;;;1.23;;
17253;SDS011;32542;52.832;13.816;2023-09-19T01:27:27;4.30;;;1.90;;
17253;SDS011;32542;52.832;13.816;2023-09-19T01:30:57;5.57;;;1.70;;
17253;SDS011;32542;52.832;13.816;2023-09-19T01:34:03;3.58;;;1.60;;
17253;SDS011;32542;52.832;13.816;2023-09-19T01:37:08;2.70;;;1.33;;
17253;SDS011;32542;52.832;13.816;2023-09-19T01:40:11;6.45;;;1.60;;
17253;SDS011;32542;52.832;13.816;2023-09-19T01:43:20;4.03;;;1.45;;
17253;SDS011;32542;52.832;13.816;2023-09-19T01:46:30;4.72;;;1.40;;
17253;SDS011;32542;52.832;13.816;2023-09-19T01:49:37;2.17;;;1.38;;
17253;SDS011;32542;52.832;13.816;2023-09-19T01:52:49;2.47;;;1.80;;
17253;SDS011;32542;52.832;13.816;2023-09-19T01:56:02;3.45;;;1.45;;
17253;SDS011;32542;52.832;13.816;2023-09-19T01:59:09;4.35;;;1.30;;
17253;SDS011;32542;52.832;13.816;2023-09-19T02:02:16;6.07;;;1.40;;
17253;SDS011;32542;52.832;13.816;2023-09-19T02:05:23;6.18;;;1.85;;
17253;SDS011;32542;52.832;13.816;2023-09-19T02:08:26;3.35;;;1.38;;
17253;SDS011;32542;52.832;13.816;2023-09-19T02:11:30;2.67;;;1.38;;
17253;SDS011;32542;52.832;13.816;2023-09-19T02:14:33;3.78;;;1.50;;
17253;SDS011;32542;52.832;13.816;2023-09-19T02:17:38;3.15;;;1.40;;
17253;SDS011;32542;52.832;13.816;2023-09-19T02:20:41;3.40;;;1.40;;
17253;SDS011;32542;52.832;13.816;2023-09-19T02:23:44;1.85;;;1.23;;
17253;SDS011;32542;52.832;13.816;2023-09-19T02:26:48;5.70;;;1.63;;
17253;SDS011;32542;52.832;13.816;2023-09-19T02:29:51;2.88;;;1.20;;
17253;SDS011;32542;52.832;13.816;2023-09-19T02:32:55;2.80;;;1.10;;
17253;SDS011;32542;52.832;13.816;2023-09-19T02:35:58;4.57;;;1.50;;
17253;SDS011;32542;52.832;13.816;2023-09-19T02:39:02;4.15;;;1.33;;
17253;SDS011;32542;52.832;13.816;2023-09-19T02:42:07;2.55;;;1.40;;
17253;SDS011;32542;52.832;13.816;2023-09-19T02:45:10;3.65;;;1.70;;
17253;SDS011;32542;52.832;13.816;2023-09-19T02:48:14;2.45;;;1.17;;
17253;SDS011;32542;52.832;13.816;2023-09-19T02:51:18;3.17;;;1.50;;
17253;SDS011;32542;52.832;13.816;2023-09-19T02:54:21;4.13;;;1.40;;
17253;SDS011;32542;52.832;13.816;2023-09-19T02:57:25;3.13;;;1.27;;
17253;SDS011;32542;52.832;13.816;2023-09-19T03:00:29;1.85;;;1.30;;
17253;SDS011;32542;52.832;13.816;2023-09-19T03:03:34;3.63;;;1.38;;
17253;SDS011;32542;52.832;13.816;2023-09-19T03:06:39;2.20;;;1.10;;
17253;SDS011;32542;52.832;13.816;2023-09-19T03:09:42;2.10;;;1.25;;
17253;SDS011;32542;52.832;13.816;2023-09-19T03:12:46;3.90;;;1.65;;
17253;SDS011;32542;52.832;13.816;2023-09-19T03:15:49;3.28;;;1.30;;
17253;SDS011;32542;52.832;13.816;2023-09-19T03:18:58;3.80;;;1.42;;
17253;SDS011;32542;52.832;13.816;2023-09-19T03:22:05;6.15;;;1.42;;
17253;SDS011;32542;52.832;13.816;2023-09-19T03:25:09;2.45;;;1.10;;
17253;SDS011;32542;52.832;13.816;2023-09-19T03:28:15;2.25;;;1.10;;
17253;SDS011;32542;52.832;13.816;2023-09-19T03:31:18;2.17;;;1.30;;
17253;SDS011;32542;52.832;13.816;2023-09-19T03:34:23;2.90;;;1.40;;
17253;SDS011;32542;52.832;13.816;2023-09-19T03:37:26;6.75;;;1.55;;
17253;SDS011;32542;52.832;13.816;2023-09-19T03:40:29;4.10;;;1.48;;
17253;SDS011;32542;52.832;13.816;2023-09-19T03:43:32;5.38;;;1.75;;
17253;SDS011;32542;52.832;13.816;2023-09-19T03:46:35;2.03;;;1.35;;
17253;SDS011;32542;52.832;13.816;2023-09-19T03:49:40;2.70;;;1.25;;
17253;SDS011;32542;52.832;13.816;2023-09-19T03:52:43;3.25;;;1.38;;
17253;SDS011;32542;52.832;13.816;2023-09-19T03:55:46;3.55;;;1.38;;
17253;SDS011;32542;52.832;13.816;2023-09-19T03:58:50;3.90;;;1.30;;
17253;SDS011;32542;52.832;13.816;2023-09-19T04:01:53;4.20;;;1.30;;
17253;SDS011;32542;52.832;13.816;2023-09-19T04:05:00;1.63;;;1.20;;
17253;SDS011;32542;52.832;13.816;2023-09-19T04:08:03;3.22;;;1.40;;
17253;SDS011;32542;52.832;13.816;2023-09-19T04:11:06;2.35;;;1.30;;
17253;SDS011;32542;52.832;13.816;2023-09-19T04:14:09;2.50;;;1.20;;
17253;SDS011;32542;52.832;13.816;2023-09-19T04:17:12;1.90;;;1.20;;
17253;SDS011;32542;52.832;13.816;2023-09-19T04:20:17;2.25;;;1.30;;
17253;SDS011;32542;52.832;13.816;2023-09-19T04:23:21;2.92;;;1.27;;
17253;SDS011;32542;52.832;13.816;2023-09-19T04:26:24;2.83;;;1.42;;
17253;SDS011;32542;52.832;13.816;2023-09-19T04:29:27;4.55;;;1.23;;
17253;SDS011;32542;52.832;13.816;2023-09-19T04:32:30;2.85;;;1.40;;
17253;SDS011;32542;52.832;13.816;2023-09-19T04:35:35;3.40;;;1.70;;
17253;SDS011;32542;52.832;13.816;2023-09-19T04:38:40;3.75;;;1.25;;
17253;SDS011;32542;52.832;13.816;2023-09-19T04:41:46;2.08;;;1.40;;
17253;SDS011;32542;52.832;13.816;2023-09-19T04:44:49;1.95;;;0.98;;
17253;SDS011;32542;52.832;13.816;2023-09-19T04:47:55;3.17;;;1.50;;
17253;SDS011;32542;52.832;13.816;2023-09-19T04:51:00;3.45;;;1.33;;
17253;SDS011;32542;52.832;13.816;2023-09-19T04:54:03;4.47;;;1.83;;
17253;SDS011;32542;52.832;13.816;2023-09-19T04:57:06;3.08;;;1.23;;
17253;SDS011;32542;52.832;13.816;2023-09-19T05:00:10;2.63;;;1.20;;
17253;SDS011;32542;52.832;13.816;2023-09-19T05:03:16;2.40;;;1.23;;
17253;SDS011;32542;52.832;13.816;2023-09-19T05:06:21;2.60;;;1.10;;
17253;SDS011;32542;52.832;13.816;2023-09-19T05:09:24;2.35;;;1.10;;
17253;SDS011;32542;52.832;13.816;2023-09-19T05:12:27;3.75;;;1.48;;
17253;SDS011;32542;52.832;13.816;2023-09-19T05:15:31;2.38;;;1.50;;
17253;SDS011;32542;52.832;13.816;2023-09-19T05:18:34;2.35;;;1.20;;
17253;SDS011;32542;52.832;13.816;2023-09-19T05:21:38;3.70;;;1.20;;
17253;SDS011;32542;52.832;13.816;2023-09-19T05:24:41;3.78;;;1.27;;
17253;SDS011;32542;52.832;13.816;2023-09-19T05:27:45;4.65;;;1.30;;
17253;SDS011;32542;52.832;13.816;2023-09-19T05:30:47;4.45;;;1.40;;
17253;SDS011;32542;52.832;13.816;2023-09-19T05:33:51;2.20;;;1.20;;
17253;SDS011;32542;52.832;13.816;2023-09-19T05:36:57;5.28;;;1.80;;
17253;SDS011;32542;52.832;13.816;2023-09-19T05:40:00;3.95;;;1.75;;
17253;SDS011;32542;52.832;13.816;2023-09-19T05:43:03;2.75;;;1.30;;
17253;SDS011;32542;52.832;13.816;2023-09-19T05:46:07;5.05;;;1.25;;
17253;SDS011;32542;52.832;13.816;2023-09-19T05:49:11;4.50;;;1.50;;
17253;SDS011;32542;52.832;13.816;2023-09-19T05:52:15;7.28;;;1.50;;
17253;SDS011;32542;52.832;13.816;2023-09-19T05:55:19;3.75;;;1.30;;
17253;SDS011;32542;52.832;13.816;2023-09-19T05:58:23;7.63;;;1.50;;
17253;SDS011;32542;52.832;13.816;2023-09-19T06:01:28;5.68;;;1.70;;
17253;SDS011;32542;52.832;13.816;2023-09-19T06:04:32;3.13;;;1.50;;
17253;SDS011;32542;52.832;13.816;2023-09-19T06:07:36;3.88;;;1.25;;
17253;SDS011;32542;52.832;13.816;2023-09-19T06:10:40;2.60;;;1.20;;
17253;SDS011;32542;52.832;13.816;2023-09-19T06:13:42;4.30;;;1.27;;
17253;SDS011;32542;52.832;13.816;2023-09-19T06:16:48;4.97;;;1.30;;
17253;SDS011;32542;52.832;13.816;2023-09-19T06:19:51;4.38;;;1.45;;
17253;SDS011;32542;52.832;13.816;2023-09-19T06:22:56;3.80;;;1.38;;
17253;SDS011;32542;52.832;13.816;2023-09-19T06:25:59;6.28;;;1.33;;
17253;SDS011;32542;52.832;13.816;2023-09-19T06:29:02;3.60;;;1.45;;
17253;SDS011;32542;52.832;13.816;2023-09-19T06:32:08;5.05;;;1.55;;
17253;SDS011;32542;52.832;13.816;2023-09-19T06:35:12;3.67;;;1.30;;
17253;SDS011;32542;52.832;13.816;2023-09-19T06:38:17;6.13;;;1.67;;
17253;SDS011;32542;52.832;13.816;2023-09-19T06:41:20;5.80;;;1.60;;
17253;SDS011;32542;52.832;13.816;2023-09-19T06:44:26;3.95;;;1.50;;
17253;SDS011;32542;52.832;13.816;2023-09-19T06:47:31;1.90;;;1.45;;
17253;SDS011;32542;52.832;13.816;2023-09-19T06:50:34;5.65;;;1.48;;
17253;SDS011;32542;52.832;13.816;2023-09-19T06:53:38;4.65;;;1.60;;
17253;SDS011;32542;52.832;13.816;2023-09-19T06:56:42;3.42;;;1.35;;
17253;SDS011;32542;52.832;13.816;2023-09-19T06:59:45;3.72;;;1.52;;
17253;SDS011;32542;52.832;13.816;2023-09-19T07:02:54;2.35;;;1.45;;
17253;SDS011;32542;52.832;13.816;2023-09-19T07:05:57;4.47;;;1.45;;
17253;SDS011;32542;52.832;13.816;2023-09-19T07:09:02;5.65;;;1.77;;
17253;SDS011;32542;52.832;13.816;2023-09-19T07:12:05;3.30;;;1.80;;
17253;SDS011;32542;52.832;13.816;2023-09-19T07:15:09;6.07;;;1.95;;
17253;SDS011;32542;52.832;13.816;2023-09-19T07:18:12;3.30;;;1.42;;
17253;SDS011;32542;52.832;13.816;2023-09-19T07:21:15;3.50;;;1.63;;
17253;SDS011;32542;52.832;13.816;2023-09-19T07:24:20;2.65;;;1.40;;
17253;SDS011;32542;52.832;13.816;2023-09-19T07:27:24;4.93;;;1.73;;
17253;SDS011;32542;52.832;13.816;2023-09-19T07:30:27;4.40;;;1.60;;
17253;SDS011;32542;52.832;13.816;2023-09-19T07:33:31;4.40;;;1.70;;
17253;SDS011;32542;52.832;13.816;2023-09-19T07:36:34;5.13;;;2.05;;
17253;SDS011;32542;52.832;13.816;2023-09-19T07:39:40;4.35;;;1.92;;
17253;SDS011;32542;52.832;13.816;2023-09-19T07:42:43;4.63;;;1.50;;
17253;SDS011;32542;52.832;13.816;2023-09-19T07:45:48;3.17;;;1.60;;
17253;SDS011;32542;52.832;13.816;2023-09-19T07:48:51;4.30;;;1.50;;
17253;SDS011;32542;52.832;13.816;2023-09-19T07:51:55;3.30;;;1.70;;
17253;SDS011;32542;52.832;13.816;2023-09-19T07:55:00;4.03;;;1.70;;
17253;SDS011;32542;52.832;13.816;2023-09-19T07:58:08;4.03;;;1.77;;
17253;SDS011;32542;52.832;13.816;2023-09-19T08:01:10;7.32;;;2.08;;
17253;SDS011;32542;52.832;13.816;2023-09-19T08:04:15;6.10;;;1.77;;
17253;SDS011;32542;52.832;13.816;2023-09-19T08:07:18;5.22;;;1.83;;
17253;SDS011;32542;52.832;13.816;2023-09-19T08:10:22;5.65;;;1.58;;
17253;SDS011;32542;52.832;13.816;2023-09-19T08:13:29;4.60;;;1.92;;
17253;SDS011;32542;52.832;13.816;2023-09-19T08:16:32;6.40;;;1.95;;
17253;SDS011;32542;52.832;13.816;2023-09-19T08:19:35;8.52;;;1.80;;
17253;SDS011;32542;52.832;13.816;2023-09-19T08:22:43;6.90;;;2.17;;
17253;SDS011;32542;52.832;13.816;2023-09-19T08:25:50;10.02;;;2.38;;
17253;SDS011;32542;52.832;13.816;2023-09-19T08:28:58;5.63;;;1.95;;
17253;SDS011;32542;52.832;13.816;2023-09-19T08:32:07;4.78;;;1.85;;
17253;SDS011;32542;52.832;13.816;2023-09-19T08:35:10;4.50;;;1.90;;
17253;SDS011;32542;52.832;13.816;2023-09-19T08:38:13;4.57;;;1.83;;
17253;SDS011;32542;52.832;13.816;2023-09-19T08:41:18;4.88;;;1.92;;
17253;SDS011;32542;52.832;13.816;2023-09-19T08:44:21;5.75;;;1.83;;
17253;SDS011;32542;52.832;13.816;2023-09-19T08:47:25;4.95;;;2.10;;
17253;SDS011;32542;52.832;13.816;2023-09-19T08:50:43;5.70;;;1.75;;
17253;SDS011;32542;52.832;13.816;2023-09-19T08:53:50;7.55;;;1.83;;
17253;SDS011;32542;52.832;13.816;2023-09-19T08:56:55;6.28;;;1.50;;
17253;SDS011;32542;52.832;13.816;2023-09-19T09:00:06;2.97;;;1.67;;
17253;SDS011;32542;52.832;13.816;2023-09-19T09:03:13;4.57;;;1.80;;
17253;SDS011;32542;52.832;13.816;2023-09-19T09:06:17;4.53;;;1.75;;
17253;SDS011;32542;52.832;13.816;2023-09-19T09:09:22;2.70;;;1.52;;
17253;SDS011;32542;52.832;13.816;2023-09-19T09:12:27;4.80;;;1.80;;
17253;SDS011;32542;52.832;13.816;2023-09-19T09:15:31;5.18;;;1.58;;
17253;SDS011;32542;52.832;13.816;2023-09-19T09:18:38;6.65;;;2.05;;
17253;SDS011;32542;52.832;13.816;2023-09-19T09:21:41;4.78;;;1.90;;
17253;SDS011;32542;52.832;13.816;2023-09-19T09:24:51;4.57;;;1.92;;
17253;SDS011;32542;52.832;13.816;2023-09-19T09:28:00;4.18;;;2.10;;
17253;SDS011;32542;52.832;13.816;2023-09-19T09:31:04;4.45;;;2.08;;
17253;SDS011;32542;52.832;13.816;2023-09-19T09:34:11;5.20;;;1.80;;
17253;SDS011;32542;52.832;13.816;2023-09-19T09:37:15;6.97;;;1.98;;
17253;SDS011;32542;52.832;13.816;2023-09-19T09:40:20;3.95;;;2.05;;
17253;SDS011;32542;52.832;13.816;2023-09-19T09:43:39;3.95;;;1.80;;
17253;SDS011;32542;52.832;13.816;2023-09-19T09:46:46;4.78;;;1.83;;
17253;SDS011;32542;52.832;13.816;2023-09-19T09:50:24;6.22;;;2.20;;
17253;SDS011;32542;52.832;13.816;2023-09-19T09:53:30;5.43;;;1.90;;
17253;SDS011;32542;52.832;13.816;2023-09-19T09:56:34;7.22;;;2.45;;
17253;SDS011;32542;52.832;13.816;2023-09-19T09:59:56;4.35;;;2.00;;
17253;SDS011;32542;52.832;13.816;2023-09-19T10:03:19;6.68;;;2.25;;
17253;SDS011;32542;52.832;13.816;2023-09-19T10:06:24;5.22;;;2.10;;
17253;SDS011;32542;52.832;13.816;2023-09-19T10:09:28;8.75;;;2.33;;
17253;SDS011;32542;52.832;13.816;2023-09-19T10:12:38;6.63;;;2.10;;
17253;SDS011;32542;52.832;13.816;2023-09-19T10:15:47;5.95;;;2.30;;
17253;SDS011;32542;52.832;13.816;2023-09-19T10:18:53;8.70;;;2.30;;
17253;SDS011;32542;52.832;13.816;2023-09-19T10:21:59;4.15;;;2.08;;
17253;SDS011;32542;52.832;13.816;2023-09-19T10:25:04;6.13;;;2.00;;
17253;SDS011;32542;52.832;13.816;2023-09-19T10:28:11;10.20;;;2.30;;
17253;SDS011;32542;52.832;13.816;2023-09-19T10:31:18;6.10;;;2.10;;
17253;SDS011;32542;52.832;13.816;2023-09-19T10:34:22;5.75;;;2.00;;
17253;SDS011;32542;52.832;13.816;2023-09-19T10:37:27;11.32;;;2.17;;
17253;SDS011;32542;52.832;13.816;2023-09-19T10:40:34;4.88;;;1.92;;
17253;SDS011;32542;52.832;13.816;2023-09-19T10:43:42;4.57;;;2.13;;
17253;SDS011;32542;52.832;13.816;2023-09-19T10:46:49;5.53;;;2.40;;
17253;SDS011;32542;52.832;13.816;2023-09-19T10:49:53;5.63;;;2.13;;
17253;SDS011;32542;52.832;13.816;2023-09-19T10:52:59;7.00;;;2.50;;
17253;SDS011;32542;52.832;13.816;2023-09-19T10:56:09;5.75;;;2.42;;
17253;SDS011;32542;52.832;13.816;2023-09-19T10:59:19;6.13;;;1.80;;
17253;SDS011;32542;52.832;13.816;2023-09-19T11:02:24;5.68;;;2.40;;
17253;SDS011;32542;52.832;13.816;2023-09-19T11:05:27;5.75;;;2.35;;
17253;SDS011;32542;52.832;13.816;2023-09-19T11:08:36;4.82;;;2.00;;
17253;SDS011;32542;52.832;13.816;2023-09-19T11:11:54;5.50;;;2.13;;
17253;SDS011;32542;52.832;13.816;2023-09-19T11:14:58;3.63;;;1.90;;
17253;SDS011;32542;52.832;13.816;2023-09-19T11:18:06;5.30;;;2.30;;
17253;SDS011;32542;52.832;13.816;2023-09-19T11:21:52;5.45;;;2.03;;
17253;SDS011;32542;52.832;13.816;2023-09-19T11:25:03;5.10;;;2.08;;
17253;SDS011;32542;52.832;13.816;2023-09-19T11:28:49;4.03;;;2.08;;
17253;SDS011;32542;52.832;13.816;2023-09-19T11:36:34;8.05;;;2.15;;
17253;SDS011;32542;52.832;13.816;2023-09-19T11:39:38;4.32;;;2.22;;
17253;SDS011;32542;52.832;13.816;2023-09-19T11:42:42;5.40;;;2.13;;
17253;SDS011;32542;52.832;13.816;2023-09-19T11:46:04;8.40;;;2.38;;
17253;SDS011;32542;52.832;13.816;2023-09-19T11:49:08;4.60;;;2.03;;
17253;SDS011;32542;52.832;13.816;2023-09-19T11:52:18;5.50;;;2.17;;
17253;SDS011;32542;52.832;13.816;2023-09-19T11:55:25;4.90;;;2.30;;
17253;SDS011;32542;52.832;13.816;2023-09-19T11:58:32;6.90;;;2.35;;
17253;SDS011;32542;52.832;13.816;2023-09-19T12:01:35;5.75;;;2.10;;
17253;SDS011;32542;52.832;13.816;2023-09-19T12:04:42;4.30;;;2.35;;
17253;SDS011;32542;52.832;13.816;2023-09-19T12:07:48;6.68;;;2.13;;
17253;SDS011;32542;52.832;13.816;2023-09-19T12:10:51;6.72;;;2.40;;
17253;SDS011;32542;52.832;13.816;2023-09-19T12:13:56;4.93;;;2.38;;
17253;SDS011;32542;52.832;13.816;2023-09-19T12:17:02;6.30;;;2.47;;
17253;SDS011;32542;52.832;13.816;2023-09-19T12:20:06;7.13;;;2.90;;
17253;SDS011;32542;52.832;13.816;2023-09-19T12:23:15;5.88;;;1.90;;
17253;SDS011;32542;52.832;13.816;2023-09-19T12:26:19;4.82;;;2.42;;
17253;SDS011;32542;52.832;13.816;2023-09-19T12:29:21;8.93;;;2.50;;
17253;SDS011;32542;52.832;13.816;2023-09-19T12:32:34;5.30;;;2.15;;
17253;SDS011;32542;52.832;13.816;2023-09-19T12:35:37;5.70;;;2.42;;
17253;SDS011;32542;52.832;13.816;2023-09-19T12:38:42;6.57;;;2.20;;
17253;SDS011;32542;52.832;13.816;2023-09-19T12:41:50;7.82;;;2.25;;
17253;SDS011;32542;52.832;13.816;2023-09-19T12:44:54;3.85;;;2.03;;
17253;SDS011;32542;52.832;13.816;2023-09-19T12:48:17;6.57;;;2.35;;
17253;SDS011;32542;52.832;13.816;2023-09-19T12:51:22;5.75;;;2.20;;
17253;SDS011;32542;52.832;13.816;2023-09-19T12:54:38;5.28;;;1.92;;
17253;SDS011;32542;52.832;13.816;2023-09-19T12:57:41;6.25;;;2.25;;
17253;SDS011;32542;52.832;13.816;2023-09-19T13:00:45;6.70;;;2.45;;
17253;SDS011;32542;52.832;13.816;2023-09-19T13:11:01;7.95;;;2.08;;
17253;SDS011;32542;52.832;13.816;2023-09-19T13:14:15;6.57;;;2.08;;
17253;SDS011;32542;52.832;13.816;2023-09-19T13:17:20;4.40;;;1.83;;
17253;SDS011;32542;52.832;13.816;2023-09-19T13:20:24;6.03;;;2.13;;
17253;SDS011;32542;52.832;13.816;2023-09-19T13:23:30;4.88;;;1.90;;
17253;SDS011;32542;52.832;13.816;2023-09-19T13:26:34;7.47;;;2.05;;
17253;SDS011;32542;52.832;13.816;2023-09-19T13:29:37;4.65;;;1.92;;
17253;SDS011;32542;52.832;13.816;2023-09-19T13:32:40;6.90;;;1.85;;
17253;SDS011;32542;52.832;13.816;2023-09-19T13:35:44;7.47;;;1.60;;
17253;SDS011;32542;52.832;13.816;2023-09-19T13:38:47;5.80;;;1.80;;
17253;SDS011;32542;52.832;13.816;2023-09-19T13:41:52;5.40;;;1.75;;
17253;SDS011;32542;52.832;13.816;2023-09-19T13:44:55;10.80;;;2.13;;
17253;SDS011;32542;52.832;13.816;2023-09-19T13:47:58;3.75;;;1.48;;
17253;SDS011;32542;52.832;13.816;2023-09-19T13:51:01;8.25;;;1.67;;
17253;SDS011;32542;52.832;13.816;2023-09-19T13:54:05;6.10;;;1.52;;
17253;SDS011;32542;52.832;13.816;2023-09-19T13:57:09;6.68;;;1.52;;
17253;SDS011;32542;52.832;13.816;2023-09-19T14:00:12;8.55;;;1.80;;
17253;SDS011;32542;52.832;13.816;2023-09-19T14:03:17;13.65;;;2.83;;
17253;SDS011;32542;52.832;13.816;2023-09-19T14:06:22;5.00;;;1.50;;
17253;SDS011;32542;52.832;13.816;2023-09-19T14:09:25;4.22;;;1.38;;
17253;SDS011;32542;52.832;13.816;2023-09-19T14:12:29;6.65;;;1.73;;
17253;SDS011;32542;52.832;13.816;2023-09-19T14:15:32;3.67;;;1.65;;
17253;SDS011;32542;52.832;13.816;2023-09-19T14:18:36;7.15;;;1.63;;
17253;SDS011;32542;52.832;13.816;2023-09-19T14:21:39;4.35;;;1.48;;
17253;SDS011;32542;52.832;13.816;2023-09-19T14:24:42;4.75;;;1.35;;
17253;SDS011;32542;52.832;13.816;2023-09-19T14:27:47;5.35;;;1.70;;
17253;SDS011;32542;52.832;13.816;2023-09-19T14:30:50;6.60;;;1.67;;
17253;SDS011;32542;52.832;13.816;2023-09-19T14:33:54;2.50;;;1.35;;
17253;SDS011;32542;52.832;13.816;2023-09-19T14:36:58;6.97;;;1.60;;
17253;SDS011;32542;52.832;13.816;2023-09-19T14:40:00;6.15;;;1.52;;
17253;SDS011;32542;52.832;13.816;2023-09-19T14:43:09;5.57;;;1.85;;
17253;SDS011;32542;52.832;13.816;2023-09-19T14:46:12;5.53;;;1.50;;
17253;SDS011;32542;52.832;13.816;2023-09-19T14:49:15;6.03;;;2.00;;
17253;SDS011;32542;52.832;13.816;2023-09-19T14:52:19;4.75;;;1.77;;
17253;SDS011;32542;52.832;13.816;2023-09-19T14:55:21;5.10;;;1.63;;
17253;SDS011;32542;52.832;13.816;2023-09-19T14:58:26;6.07;;;1.42;;
17253;SDS011;32542;52.832;13.816;2023-09-19T15:01:31;6.93;;;1.90;;
17253;SDS011;32542;52.832;13.816;2023-09-19T15:04:34;5.57;;;1.60;;
17253;SDS011;32542;52.832;13.816;2023-09-19T15:07:37;4.50;;;1.67;;
17253;SDS011;32542;52.832;13.816;2023-09-19T15:10:41;6.13;;;1.60;;
17253;SDS011;32542;52.832;13.816;2023-09-19T15:13:53;7.82;;;1.42;;
17253;SDS011;32542;52.832;13.816;2023-09-19T15:16:56;5.78;;;1.75;;
17253;SDS011;32542;52.832;13.816;2023-09-19T15:19:59;3.40;;;1.83;;
17253;SDS011;32542;52.832;13.816;2023-09-19T15:23:03;7.10;;;1.50;;
17253;SDS011;32542;52.832;13.816;2023-09-19T15:26:06;3.35;;;1.70;;
17253;SDS011;32542;52.832;13.816;2023-09-19T15:29:12;3.60;;;1.52;;
17253;SDS011;32542;52.832;13.816;2023-09-19T15:32:15;4.72;;;1.38;;
17253;SDS011;32542;52.832;13.816;2023-09-19T15:35:18;3.78;;;1.30;;
17253;SDS011;32542;52.832;13.816;2023-09-19T15:38:21;4.85;;;1.70;;
17253;SDS011;32542;52.832;13.816;2023-09-19T15:41:24;3.30;;;1.90;;
17253;SDS011;32542;52.832;13.816;2023-09-19T15:44:29;5.80;;;1.70;;
17253;SDS011;32542;52.832;13.816;2023-09-19T15:47:32;3.47;;;1.25;;
17253;SDS011;32542;52.832;13.816;2023-09-19T15:50:35;5.13;;;1.70;;
17253;SDS011;32542;52.832;13.816;2023-09-19T15:53:41;5.43;;;1.75;;
17253;SDS011;32542;52.832;13.816;2023-09-19T15:56:46;5.38;;;1.50;;
17253;SDS011;32542;52.832;13.816;2023-09-19T15:59:51;2.50;;;1.42;;
17253;SDS011;32542;52.832;13.816;2023-09-19T16:02:54;4.32;;;1.60;;
17253;SDS011;32542;52.832;13.816;2023-09-19T16:05:58;3.55;;;1.60;;
17253;SDS011;32542;52.832;13.816;2023-09-19T16:09:01;5.95;;;2.40;;
17253;SDS011;32542;52.832;13.816;2023-09-19T16:12:05;3.03;;;1.60;;
17253;SDS011;32542;52.832;13.816;2023-09-19T16:15:11;4.82;;;1.77;;
17253;SDS011;32542;52.832;13.816;2023-09-19T16:18:16;3.83;;;1.73;;
17253;SDS011;32542;52.832;13.816;2023-09-19T16:21:18;8.20;;;1.83;;
17253;SDS011;32542;52.832;13.816;2023-09-19T16:24:21;4.72;;;1.70;;
17253;SDS011;32542;52.832;13.816;2023-09-19T16:27:25;3.10;;;1.48;;
17253;SDS011;32542;52.832;13.816;2023-09-19T16:30:31;5.43;;;1.83;;
17253;SDS011;32542;52.832;13.816;2023-09-19T16:33:35;5.75;;;1.80;;
17253;SDS011;32542;52.832;13.816;2023-09-19T16:36:41;6.22;;;1.63;;
17253;SDS011;32542;52.832;13.816;2023-09-19T16:39:44;3.03;;;1.60;;
17253;SDS011;32542;52.832;13.816;2023-09-19T16:42:47;3.10;;;1.75;;
17253;SDS011;32542;52.832;13.816;2023-09-19T16:45:53;3.70;;;1.60;;
17253;SDS011;32542;52.832;13.816;2023-09-19T16:48:56;6.10;;;2.15;;
17253;SDS011;32542;52.832;13.816;2023-09-19T16:52:05;5.95;;;1.83;;
17253;SDS011;32542;52.832;13.816;2023-09-19T16:55:08;6.68;;;1.60;;
17253;SDS011;32542;52.832;13.816;2023-09-19T16:58:11;5.50;;;2.03;;
17253;SDS011;32542;52.832;13.816;2023-09-19T17:01:15;5.70;;;1.70;;
17253;SDS011;32542;52.832;13.816;2023-09-19T17:04:20;3.85;;;1.80;;
17253;SDS011;32542;52.832;13.816;2023-09-19T17:07:23;7.88;;;2.10;;
17253;SDS011;32542;52.832;13.816;2023-09-19T17:10:29;4.65;;;1.67;;
17253;SDS011;32542;52.832;13.816;2023-09-19T17:13:32;4.63;;;1.70;;
17253;SDS011;32542;52.832;13.816;2023-09-19T17:16:38;4.57;;;1.70;;
17253;SDS011;32542;52.832;13.816;2023-09-19T17:19:43;5.50;;;1.85;;
17253;SDS011;32542;52.832;13.816;2023-09-19T17:22:46;2.95;;;1.60;;
17253;SDS011;32542;52.832;13.816;2023-09-19T17:25:49;5.35;;;1.60;;
17253;SDS011;32542;52.832;13.816;2023-09-19T17:29:01;5.78;;;1.90;;
17253;SDS011;32542;52.832;13.816;2023-09-19T17:32:05;6.43;;;2.03;;
17253;SDS011;32542;52.832;13.816;2023-09-19T17:35:09;4.18;;;1.80;;
17253;SDS011;32542;52.832;13.816;2023-09-19T17:38:13;5.93;;;1.63;;
17253;SDS011;32542;52.832;13.816;2023-09-19T17:41:15;6.38;;;1.92;;
17253;SDS011;32542;52.832;13.816;2023-09-19T17:44:19;4.78;;;2.13;;
17253;SDS011;32542;52.832;13.816;2023-09-19T17:47:23;7.60;;;2.70;;
17253;SDS011;32542;52.832;13.816;2023-09-19T17:50:26;5.38;;;2.20;;
17253;SDS011;32542;52.832;13.816;2023-09-19T17:57:04;5.28;;;2.20;;
17253;SDS011;32542;52.832;13.816;2023-09-19T18:00:07;4.93;;;2.10;;
17253;SDS011;32542;52.832;13.816;2023-09-19T18:03:13;7.75;;;2.45;;
17253;SDS011;32542;52.832;13.816;2023-09-19T18:06:17;5.97;;;2.00;;
17253;SDS011;32542;52.832;13.816;2023-09-19T18:09:20;3.45;;;1.85;;
17253;SDS011;32542;52.832;13.816;2023-09-19T18:12:23;7.50;;;2.30;;
17253;SDS011;32542;52.832;13.816;2023-09-19T18:15:26;5.22;;;2.10;;
17253;SDS011;32542;52.832;13.816;2023-09-19T18:18:35;7.07;;;2.20;;
17253;SDS011;32542;52.832;13.816;2023-09-19T18:21:38;6.20;;;1.85;;
17253;SDS011;32542;52.832;13.816;2023-09-19T18:24:47;4.78;;;2.17;;
17253;SDS011;32542;52.832;13.816;2023-09-19T18:27:50;5.18;;;2.53;;
17253;SDS011;32542;52.832;13.816;2023-09-19T18:30:54;6.80;;;1.98;;
17253;SDS011;32542;52.832;13.816;2023-09-19T18:33:59;5.88;;;2.00;;